createdAt,value
2022-12-04T00:02:28.216Z,87.95
2022-12-04T00:04:57.394Z,87.67
2022-12-04T00:07:26.464Z,88.05
2022-12-04T00:09:55.576Z,88.54
2022-12-04T00:12:25.808Z,88.18
2022-12-04T00:17:50.723Z,88.46
2022-12-04T00:20:19.991Z,88.39
2022-12-04T00:22:48.726Z,88.93
2022-12-04T00:25:17.677Z,88.90
2022-12-04T00:27:48.838Z,88.10
2022-12-04T00:30:19.466Z,88.29
2022-12-04T00:32:48.486Z,88.67
2022-12-04T00:35:17.209Z,88.73
2022-12-04T00:37:45.978Z,88.73
2022-12-04T00:40:15.266Z,88.40
2022-12-04T00:42:46.472Z,88.34
2022-12-04T00:45:15.108Z,88.57
2022-12-04T00:47:46.367Z,88.00
2022-12-04T00:50:15.065Z,88.58
2022-12-04T00:52:43.778Z,88.95
2022-12-04T00:55:12.441Z,89.02
2022-12-04T00:57:41.191Z,87.72
2022-12-04T01:00:10.903Z,87.40
2022-12-04T01:02:39.596Z,88.22
2022-12-04T01:05:13.539Z,88.29
2022-12-04T01:07:42.509Z,88.64
2022-12-04T01:10:14.006Z,88.10
2022-12-04T01:12:45.469Z,89.21
2022-12-04T01:15:14.262Z,89.59
2022-12-04T01:17:47.890Z,88.79
2022-12-04T01:20:18.890Z,88.60
2022-12-04T01:22:48.011Z,89.13
2022-12-04T01:25:17.120Z,89.06
2022-12-04T01:27:45.847Z,89.33
2022-12-04T01:30:15.008Z,89.31
2022-12-04T01:32:43.939Z,89.49
2022-12-04T01:35:13.706Z,89.05
2022-12-04T01:37:44.496Z,89.44
2022-12-04T01:40:19.627Z,90.04
2022-12-04T01:42:50.949Z,90.11
2022-12-04T01:45:45.842Z,90.21
2022-12-04T01:48:21.968Z,89.24
2022-12-04T01:50:54.387Z,88.96
2022-12-04T01:53:25.845Z,89.70
2022-12-04T01:55:56.532Z,89.86
2022-12-04T01:58:30.430Z,89.55
2022-12-04T02:01:08.760Z,90.36
2022-12-04T02:03:40.510Z,89.80
2022-12-04T02:06:09.677Z,89.94
2022-12-04T02:08:40.397Z,90.09
2022-12-04T02:11:30.155Z,89.73
2022-12-04T02:14:09.576Z,90.26
2022-12-04T02:16:47.951Z,90.47
2022-12-04T02:19:42.882Z,90.57
2022-12-04T02:22:20.991Z,89.93
2022-12-04T02:24:58.912Z,89.78
2022-12-04T02:28:00.814Z,89.62
2022-12-04T02:30:33.371Z,89.90
2022-12-04T02:33:08.865Z,90.13
2022-12-04T02:35:43.575Z,90.61
2022-12-04T02:38:19.255Z,90.33
2022-12-04T02:40:53.375Z,90.70
2022-12-04T02:43:26.923Z,90.90
2022-12-04T02:46:01.436Z,90.74
2022-12-04T02:48:36.856Z,90.41
2022-12-04T02:51:08.776Z,90.64
2022-12-04T02:53:44.930Z,91.09
2022-12-04T02:56:20.276Z,91.08
2022-12-04T02:58:55.432Z,91.03
2022-12-04T03:01:29.881Z,91.03
2022-12-04T03:04:04.966Z,91.05
2022-12-04T03:06:37.900Z,90.75
2022-12-04T03:09:14.694Z,90.66
2022-12-04T03:11:51.154Z,90.96
2022-12-04T03:14:25.121Z,90.37
2022-12-04T03:17:01.262Z,90.18
2022-12-04T03:19:38.356Z,90.06
2022-12-04T03:22:12.163Z,90.72
2022-12-04T03:24:44.849Z,91.04
2022-12-04T03:27:22.815Z,91.25
2022-12-04T03:30:00.008Z,90.67
2022-12-04T03:32:34.934Z,90.14
2022-12-04T03:35:09.110Z,90.97
2022-12-04T03:37:44.402Z,90.00
2022-12-04T03:40:18.576Z,90.60
2022-12-04T03:42:51.025Z,90.45
2022-12-04T03:45:27.740Z,90.83
2022-12-04T03:48:03.503Z,90.19
2022-12-04T03:50:38.429Z,89.65
2022-12-04T03:53:14.303Z,89.92
2022-12-04T03:55:51.120Z,90.48
2022-12-04T03:58:32.590Z,90.71
2022-12-04T04:01:08.298Z,91.16
2022-12-04T04:03:40.935Z,91.49
2022-12-04T04:06:15.151Z,91.75
2022-12-04T04:08:47.020Z,91.20
2022-12-04T04:11:19.604Z,91.10
2022-12-04T04:14:11.607Z,91.94
2022-12-04T04:17:06.905Z,91.18
2022-12-04T04:19:55.976Z,90.42
2022-12-04T04:22:44.685Z,90.98
2022-12-04T04:25:17.527Z,90.89
2022-12-04T04:27:53.587Z,91.54
2022-12-04T04:30:23.094Z,90.97
2022-12-04T04:32:59.434Z,90.89
2022-12-04T04:35:39.961Z,90.99
2022-12-04T04:38:20.912Z,91.60
2022-12-04T04:40:57.985Z,91.71
2022-12-04T04:43:31.940Z,91.01
2022-12-04T04:46:06.022Z,90.97
2022-12-04T04:48:40.781Z,91.69
2022-12-04T04:51:11.880Z,91.22
2022-12-04T04:53:46.360Z,89.62
2022-12-04T04:56:23.288Z,90.34
2022-12-04T04:58:52.003Z,90.54
2022-12-04T05:01:23.766Z,90.01
2022-12-04T05:03:54.105Z,90.47
2022-12-04T05:06:25.676Z,90.27
2022-12-04T05:08:54.794Z,91.27
2022-12-04T05:11:24.863Z,90.57
2022-12-04T05:13:57.215Z,91.11
2022-12-04T05:16:26.025Z,90.88
2022-12-04T05:19:15.821Z,90.89
2022-12-04T05:21:44.550Z,91.20
2022-12-04T05:24:13.663Z,91.11
2022-12-04T05:26:43.088Z,91.54
2022-12-04T05:29:14.734Z,91.41
2022-12-04T05:31:43.469Z,91.01
2022-12-04T05:34:14.335Z,90.77
2022-12-04T05:36:45.258Z,90.81
2022-12-04T05:39:14.899Z,91.19
2022-12-04T05:41:46.194Z,90.17
2022-12-04T05:44:17.204Z,89.24
2022-12-04T05:46:46.033Z,90.16
2022-12-04T05:49:16.451Z,90.80
2022-12-04T05:51:45.122Z,90.96
2022-12-04T05:54:13.872Z,90.85
2022-12-04T05:56:42.573Z,91.67
2022-12-04T05:59:11.389Z,91.12
2022-12-04T06:02:10.781Z,91.47
2022-12-04T06:04:41.383Z,91.93
2022-12-04T06:07:11.272Z,91.41
2022-12-04T06:09:43.139Z,91.42
2022-12-04T06:12:12.874Z,91.93
2022-12-04T06:14:41.946Z,92.38
2022-12-04T06:17:11.073Z,91.92
2022-12-04T06:19:41.450Z,92.16
2022-12-04T06:22:10.690Z,92.29
2022-12-04T06:24:39.959Z,91.98
2022-12-04T06:27:27.113Z,92.10
2022-12-04T06:29:57.895Z,92.01
2022-12-04T06:32:27.158Z,92.38
2022-12-04T06:34:57.760Z,92.05
2022-12-04T06:37:27.252Z,92.07
2022-12-04T06:39:59.464Z,92.75
2022-12-04T06:42:28.602Z,93.11
2022-12-04T06:44:59.116Z,92.73
2022-12-04T06:47:31.037Z,92.87
2022-12-04T06:50:08.098Z,92.80
2022-12-04T06:52:36.855Z,92.75
2022-12-04T06:55:06.896Z,93.00
2022-12-04T06:57:35.689Z,93.10
2022-12-04T07:00:12.953Z,93.01
2022-12-04T07:02:42.441Z,92.71
2022-12-04T07:05:12.951Z,92.75
2022-12-04T07:07:45.365Z,93.33
2022-12-04T07:10:18.891Z,93.34
2022-12-04T07:12:48.014Z,92.77
2022-12-04T07:15:18.420Z,93.10
2022-12-04T07:17:47.220Z,93.18
2022-12-04T07:20:17.571Z,93.22
2022-12-04T07:22:46.326Z,93.07
2022-12-04T07:25:17.536Z,93.78
2022-12-04T07:27:46.144Z,93.04
2022-12-04T07:30:16.252Z,92.95
2022-12-04T07:32:45.848Z,93.55
2022-12-04T07:35:14.629Z,93.31
2022-12-04T07:37:44.627Z,93.41
2022-12-04T07:40:15.991Z,93.67
2022-12-04T07:42:44.609Z,93.80
2022-12-04T07:45:14.158Z,93.72
2022-12-04T07:47:44.060Z,93.15
2022-12-04T07:50:16.030Z,92.61
2022-12-04T07:52:46.046Z,92.35
2022-12-04T07:55:18.798Z,92.79
2022-12-04T07:57:50.314Z,92.42
2022-12-04T08:00:20.685Z,91.82
2022-12-04T08:02:50.667Z,91.98
2022-12-04T08:05:21.906Z,92.34
2022-12-04T08:07:52.008Z,92.41
2022-12-04T08:10:20.764Z,92.17
2022-12-04T08:12:49.366Z,91.75
2022-12-04T08:15:18.176Z,92.09
2022-12-04T08:17:49.821Z,92.19
2022-12-04T08:20:18.497Z,92.28
2022-12-04T08:22:47.431Z,91.61
2022-12-04T08:25:22.453Z,91.48
2022-12-04T08:27:53.386Z,91.57
2022-12-04T08:30:27.641Z,91.67
2022-12-04T08:33:00.937Z,91.39
2022-12-04T08:35:31.862Z,91.84
2022-12-04T08:38:03.691Z,92.19
2022-12-04T08:40:35.480Z,91.32
2022-12-04T08:43:04.509Z,91.76
2022-12-04T08:45:33.874Z,92.21
2022-12-04T08:48:02.658Z,92.09
2022-12-04T08:50:33.673Z,92.65
2022-12-04T08:53:02.481Z,92.41
2022-12-04T08:55:36.347Z,92.73
2022-12-04T08:58:05.111Z,92.83
2022-12-04T09:00:34.110Z,92.67
2022-12-04T09:03:02.843Z,91.70
2022-12-04T09:05:32.363Z,91.85
2022-12-04T09:08:01.054Z,92.07
2022-12-04T09:10:32.763Z,92.00
2022-12-04T09:13:03.963Z,92.21
2022-12-04T09:15:33.786Z,92.44
2022-12-04T09:18:02.767Z,92.14
2022-12-04T09:20:34.283Z,92.90
2022-12-04T09:23:04.689Z,92.60
2022-12-04T09:25:39.263Z,91.96
2022-12-04T09:28:09.815Z,91.77
2022-12-04T09:30:39.451Z,92.36
2022-12-04T09:33:11.633Z,92.72
2022-12-04T09:35:40.536Z,92.63
2022-12-04T09:38:09.253Z,93.10
2022-12-04T09:40:48.088Z,92.25
2022-12-04T09:43:30.337Z,91.64
2022-12-04T09:46:08.970Z,92.10
2022-12-04T09:48:42.303Z,92.16
2022-12-04T09:51:42.463Z,91.82
2022-12-04T09:54:17.112Z,91.93
2022-12-04T09:56:53.439Z,91.82
2022-12-04T09:59:27.470Z,92.18
2022-12-04T10:02:01.783Z,92.07
2022-12-04T10:04:32.051Z,92.18
2022-12-04T10:07:12.451Z,92.01
2022-12-04T10:09:50.077Z,92.04
2022-12-04T10:12:24.658Z,91.39
2022-12-04T10:15:26.311Z,91.39
2022-12-04T10:18:17.722Z,91.44
2022-12-04T10:21:11.504Z,91.50
2022-12-04T10:23:54.207Z,91.51
2022-12-04T10:26:28.125Z,92.06
2022-12-04T10:29:03.694Z,92.87
2022-12-04T10:31:37.841Z,92.67
2022-12-04T10:34:17.076Z,92.75
2022-12-04T10:36:51.546Z,93.38
2022-12-04T10:39:25.961Z,93.45
2022-12-04T10:42:01.057Z,93.38
2022-12-04T10:44:30.088Z,92.84
2022-12-04T10:47:03.382Z,93.06
2022-12-04T10:49:36.703Z,93.65
2022-12-04T10:52:07.472Z,93.65
2022-12-04T10:54:39.941Z,94.16
2022-12-04T10:57:11.640Z,94.33
2022-12-04T10:59:49.457Z,93.76
2022-12-04T11:02:23.869Z,94.65
2022-12-04T11:05:00.107Z,94.89
2022-12-04T11:07:31.134Z,93.88
2022-12-04T11:10:03.286Z,93.33
2022-12-04T11:12:33.214Z,94.09
2022-12-04T11:15:05.066Z,94.55
2022-12-04T11:17:35.616Z,94.32
2022-12-04T11:20:10.607Z,93.06
2022-12-04T11:22:51.879Z,92.24
2022-12-04T11:25:23.748Z,92.73
2022-12-04T11:27:56.090Z,92.62
2022-12-04T11:30:31.033Z,92.85
2022-12-04T11:33:02.756Z,92.34
2022-12-04T11:35:34.762Z,92.64
2022-12-04T11:38:08.628Z,91.74
2022-12-04T11:40:38.030Z,91.88
2022-12-04T11:43:14.296Z,91.92
2022-12-04T11:45:54.651Z,92.35
2022-12-04T11:48:25.701Z,91.54
2022-12-04T11:51:06.498Z,91.61
2022-12-04T11:53:45.373Z,91.80
2022-12-04T11:56:30.272Z,92.38
2022-12-04T11:59:25.676Z,92.44
2022-12-04T12:02:04.082Z,92.29
2022-12-04T12:05:09.323Z,91.92
2022-12-04T12:07:47.348Z,91.09
2022-12-04T12:10:21.868Z,91.63
2022-12-04T12:13:03.107Z,92.05
2022-12-04T12:15:41.789Z,90.79
2022-12-04T12:18:23.458Z,90.67
2022-12-04T12:21:03.599Z,91.46
2022-12-04T12:23:51.801Z,92.16
2022-12-04T12:26:20.507Z,91.27
2022-12-04T12:29:10.232Z,90.76
2022-12-04T12:31:56.767Z,90.31
2022-12-04T12:34:37.046Z,90.67
2022-12-04T12:37:15.059Z,91.07
2022-12-04T12:39:52.193Z,91.84
2022-12-04T12:42:27.989Z,90.68
2022-12-04T12:45:05.563Z,91.23
2022-12-04T12:47:45.118Z,91.58
2022-12-04T12:50:45.273Z,88.79
2022-12-04T12:53:21.946Z,90.41
2022-12-04T12:55:54.975Z,90.81
2022-12-04T12:58:33.970Z,90.37
2022-12-04T13:01:09.166Z,91.45
2022-12-04T13:03:46.193Z,90.94
2022-12-04T13:06:18.180Z,90.68
2022-12-04T13:09:06.988Z,90.66
2022-12-04T13:11:38.649Z,91.16
2022-12-04T13:14:07.481Z,91.71
2022-12-04T13:16:42.857Z,91.83
2022-12-04T13:19:20.164Z,91.05
2022-12-04T13:22:01.342Z,90.40
2022-12-04T13:24:50.493Z,90.87
2022-12-04T13:27:30.428Z,91.85
2022-12-04T13:30:19.915Z,91.00
2022-12-04T13:33:32.437Z,90.46
2022-12-04T13:36:15.708Z,90.54
2022-12-04T13:38:59.422Z,90.82
2022-12-04T13:41:29.835Z,91.11
2022-12-04T13:44:06.852Z,90.87
2022-12-04T13:46:38.771Z,90.79
2022-12-04T13:49:25.154Z,90.86
2022-12-04T13:51:55.479Z,92.09
2022-12-04T13:54:31.419Z,90.49
2022-12-04T13:57:21.185Z,90.65
2022-12-04T13:59:50.924Z,90.98
2022-12-04T14:02:27.806Z,90.57
2022-12-04T14:05:00.184Z,90.02
2022-12-04T14:07:34.529Z,90.78
2022-12-04T14:10:07.363Z,90.92
2022-12-04T14:12:41.451Z,91.54
2022-12-04T14:15:22.096Z,91.09
2022-12-04T14:17:59.937Z,91.48
2022-12-04T14:20:30.922Z,91.56
2022-12-04T14:23:10.461Z,91.75
2022-12-04T14:25:40.986Z,92.02
2022-12-04T14:28:27.216Z,92.28
2022-12-04T14:31:11.174Z,91.94
2022-12-04T14:33:46.639Z,91.43
2022-12-04T14:36:21.407Z,91.21
2022-12-04T14:39:06.082Z,90.41
2022-12-04T14:41:36.429Z,90.60
2022-12-04T14:44:06.696Z,90.64
2022-12-04T14:46:45.952Z,89.65
2022-12-04T14:49:27.188Z,90.14
2022-12-04T14:52:05.653Z,90.43
2022-12-04T14:54:41.568Z,90.52
2022-12-04T14:57:32.523Z,89.73
2022-12-04T15:00:05.746Z,90.17
2022-12-04T15:02:40.047Z,90.75
2022-12-04T15:05:12.671Z,91.57
2022-12-04T15:07:50.183Z,91.68
2022-12-04T15:10:40.646Z,91.72
2022-12-04T15:13:09.461Z,91.95
2022-12-04T15:15:46.762Z,92.07
2022-12-04T15:18:17.317Z,91.94
2022-12-04T15:20:58.673Z,90.83
2022-12-04T15:23:31.166Z,91.20
2022-12-04T15:26:03.109Z,92.44
2022-12-04T15:28:36.446Z,92.03
2022-12-04T15:31:11.713Z,91.91
2022-12-04T15:33:44.963Z,92.11
2022-12-04T15:36:18.064Z,92.33
2022-12-04T15:38:49.740Z,92.49
2022-12-04T15:41:31.914Z,91.83
2022-12-04T15:44:00.940Z,91.10
2022-12-04T15:46:34.691Z,91.87
2022-12-04T15:49:09.060Z,91.92
2022-12-04T15:51:37.870Z,91.53
2022-12-04T15:54:13.731Z,91.47
2022-12-04T15:56:44.943Z,92.22
2022-12-04T15:59:19.246Z,92.11
2022-12-04T16:01:51.202Z,92.85
2022-12-04T16:20:33.351Z,92.63
2022-12-04T16:23:02.400Z,92.97
2022-12-04T16:25:34.746Z,92.38
2022-12-04T16:28:03.457Z,93.10
2022-12-04T16:40:06.536Z,92.77
2022-12-04T16:42:40.422Z,92.18
2022-12-04T16:45:20.991Z,92.37
2022-12-04T16:47:52.767Z,93.58
2022-12-04T16:50:25.050Z,93.75
2022-12-04T16:52:57.024Z,93.12
2022-12-04T16:55:36.854Z,92.62
2022-12-04T16:58:08.022Z,92.48
2022-12-04T17:00:43.572Z,93.10
2022-12-04T17:03:19.341Z,93.53
2022-12-04T17:05:50.730Z,93.29
2022-12-04T17:08:22.740Z,93.18
2022-12-04T17:10:52.876Z,93.62
2022-12-04T17:13:23.468Z,93.46
2022-12-04T17:15:55.252Z,91.77
2022-12-04T17:18:24.604Z,91.83
2022-12-04T17:20:53.299Z,91.81
2022-12-04T17:23:24.438Z,92.30
2022-12-04T17:25:54.858Z,92.90
2022-12-04T17:28:23.784Z,92.55
2022-12-04T17:30:52.365Z,93.12
2022-12-04T17:33:21.421Z,93.36
2022-12-04T17:35:50.741Z,93.77
2022-12-04T17:38:19.449Z,93.29
2022-12-04T17:41:01.130Z,92.04
2022-12-04T17:43:33.427Z,93.28
2022-12-04T17:46:02.364Z,93.79
2022-12-04T17:48:31.021Z,94.38
2022-12-04T17:51:08.126Z,94.51
2022-12-04T17:53:37.524Z,94.09
2022-12-04T17:56:11.097Z,94.10
2022-12-04T18:02:31.713Z,93.45
2022-12-04T18:05:01.210Z,92.52
2022-12-04T18:07:31.626Z,93.46
2022-12-04T18:10:00.741Z,93.36
2022-12-04T18:12:30.957Z,93.39
2022-12-04T18:15:00.405Z,92.70
2022-12-04T18:17:29.539Z,93.03
2022-12-04T18:20:03.948Z,93.86
2022-12-04T18:22:33.449Z,93.88
2022-12-04T18:25:02.567Z,93.64
2022-12-04T18:27:41.553Z,93.74
2022-12-04T18:30:11.997Z,93.60
2022-12-04T18:32:40.653Z,93.27
2022-12-04T18:35:09.968Z,93.17
2022-12-04T18:37:38.949Z,93.32
2022-12-04T18:40:09.259Z,93.85
2022-12-04T18:42:39.560Z,92.16
2022-12-04T18:45:10.134Z,92.64
2022-12-04T18:47:41.351Z,92.88
2022-12-04T18:50:11.134Z,92.98
2022-12-04T18:52:40.549Z,91.71
2022-12-04T18:55:09.837Z,91.65
2022-12-04T18:57:41.454Z,91.79
2022-12-04T19:00:11.361Z,91.96
2022-12-04T19:02:46.253Z,92.36
2022-12-04T19:05:14.972Z,92.60
2022-12-04T19:07:48.385Z,93.14
2022-12-04T19:10:17.385Z,93.39
2022-12-04T19:12:47.757Z,93.03
2022-12-04T19:15:16.502Z,94.03
2022-12-04T19:17:48.062Z,93.95
2022-12-04T19:20:21.331Z,94.21
2022-12-04T19:22:50.164Z,94.86
2022-12-04T19:25:19.252Z,95.48
2022-12-04T19:27:50.582Z,95.34
2022-12-04T19:30:19.564Z,95.61
2022-12-04T19:32:50.541Z,96.31
2022-12-04T19:35:19.418Z,96.42
2022-12-04T19:37:52.462Z,97.27
2022-12-04T19:40:21.877Z,96.96
2022-12-04T19:42:51.938Z,96.62
2022-12-04T19:45:22.594Z,97.80
2022-12-04T19:47:51.308Z,97.33
2022-12-04T19:50:21.391Z,98.54
2022-12-04T19:52:52.541Z,99.21
2022-12-04T19:55:23.481Z,99.94
2022-12-04T19:57:53.757Z,100.00
2022-12-04T20:00:22.555Z,99.99
2022-12-04T20:02:51.274Z,100.00
2022-12-04T20:05:20.304Z,100.00
2022-12-04T20:07:48.984Z,100.00
2022-12-04T20:10:18.063Z,100.00
2022-12-04T20:12:46.854Z,100.00
2022-12-04T20:15:17.102Z,100.00
2022-12-04T20:17:45.821Z,100.00
2022-12-04T20:20:15.147Z,100.00
2022-12-04T20:22:44.221Z,100.00
2022-12-04T20:25:42.216Z,100.00
2022-12-04T20:28:14.480Z,100.00
2022-12-04T20:30:45.522Z,100.00
2022-12-04T20:33:14.624Z,100.00
2022-12-04T20:35:43.486Z,100.00
2022-12-04T20:38:13.651Z,100.00
2022-12-04T20:40:44.870Z,100.00
2022-12-04T20:43:14.806Z,100.00
2022-12-04T20:45:45.325Z,100.00
2022-12-04T20:48:14.587Z,100.00
2022-12-04T20:50:46.668Z,100.00
2022-12-04T20:53:18.058Z,100.00
2022-12-04T20:55:56.499Z,100.00
2022-12-04T20:58:25.505Z,100.00
2022-12-04T21:01:05.863Z,100.00
2022-12-04T21:03:35.489Z,100.00
2022-12-04T21:06:05.284Z,100.00
2022-12-04T21:08:51.345Z,100.00
2022-12-04T21:11:20.522Z,100.00
2022-12-04T21:14:10.058Z,100.00
2022-12-04T21:16:43.941Z,100.00
2022-12-04T21:19:16.933Z,100.00
2022-12-04T21:21:48.589Z,100.00
2022-12-04T21:24:19.789Z,100.00
2022-12-04T21:26:49.583Z,100.00
2022-12-04T21:29:18.511Z,100.00
2022-12-04T21:31:48.859Z,100.00
2022-12-04T21:34:18.698Z,100.00
2022-12-04T21:36:52.141Z,100.00
2022-12-04T21:39:23.907Z,100.00
2022-12-04T21:42:10.391Z,100.00
2022-12-04T21:44:39.468Z,100.00
2022-12-04T21:47:09.761Z,100.00
2022-12-04T21:49:44.088Z,100.00
2022-12-04T21:52:12.874Z,100.00
2022-12-04T21:54:44.798Z,100.00
2022-12-04T21:57:13.623Z,100.00
2022-12-04T21:59:44.578Z,100.00
2022-12-04T22:02:15.966Z,100.00
2022-12-04T22:04:44.840Z,100.00
2022-12-04T22:07:14.044Z,100.00
2022-12-04T22:09:45.523Z,100.00
2022-12-04T22:15:05.339Z,100.00
2022-12-04T22:17:35.541Z,100.00
2022-12-04T22:20:04.893Z,100.00
2022-12-04T22:22:36.631Z,100.00
2022-12-04T22:25:05.805Z,100.00
2022-12-04T22:27:35.013Z,100.00
2022-12-04T22:30:07.556Z,100.00
2022-12-04T22:32:41.097Z,100.00
2022-12-04T22:35:13.328Z,100.00
2022-12-04T22:37:44.579Z,100.00
2022-12-04T22:40:14.618Z,100.00
2022-12-04T22:42:45.574Z,100.00
2022-12-04T22:45:14.382Z,100.00
2022-12-04T22:47:45.187Z,100.00
2022-12-04T22:50:13.946Z,100.00
2022-12-04T22:52:42.784Z,100.00
2022-12-04T22:55:12.931Z,100.00
2022-12-04T22:57:41.731Z,100.00
2022-12-04T23:00:11.598Z,100.00
2022-12-04T23:02:40.338Z,100.00
2022-12-04T23:05:10.657Z,100.00
2022-12-04T23:07:39.648Z,100.00
2022-12-04T23:10:09.563Z,100.00
2022-12-04T23:12:38.272Z,100.00
2022-12-04T23:15:08.304Z,100.00
2022-12-04T23:17:37.508Z,100.00
2022-12-04T23:20:07.769Z,100.00
2022-12-04T23:22:38.499Z,100.00
2022-12-04T23:25:08.354Z,100.00
2022-12-04T23:27:37.161Z,100.00
2022-12-04T23:30:10.173Z,100.00
2022-12-04T23:32:42.483Z,100.00
2022-12-04T23:35:11.523Z,100.00
2022-12-04T23:37:41.970Z,100.00
2022-12-04T23:40:13.810Z,100.00
2022-12-04T23:42:42.633Z,100.00
2022-12-04T23:45:13.711Z,100.00
2022-12-04T23:47:43.655Z,100.00
2022-12-04T23:50:12.639Z,100.00
2022-12-04T23:52:43.325Z,100.00
2022-12-04T23:55:12.710Z,100.00
2022-12-04T23:57:41.515Z,100.00
